Time;durP1;ratioP1;P1;durP2;ratioP2;P2;SDS_P1;SDS_P2;PMS_P1;PMS_P2;Temp;Humidity;BMP_temperature;BMP_pressure;BME280_temperature;BME280_humidity;BME280_pressure;Samples;Min_cycle;Max_cycle;Signal;HPM_P1;HPM_P2
2024/01/27 00:01:23;;;;;;;13.53;3.40;;;;;;;;;;5071787;28;20260;-45
2024/01/27 00:03:50;;;;;;;12.10;3.30;;;;;;;;;;5071011;28;20286;-45
2024/01/27 00:06:17;;;;;;;11.87;3.50;;;;;;;;;;5071773;28;20291;-45
2024/01/27 00:08:43;;;;;;;13.63;3.53;;;;;;;;;;5071593;28;20438;-45
2024/01/27 00:11:11;;;;;;;13.90;3.53;;;;;;;;;;5071685;28;20202;-44
2024/01/27 00:13:37;;;;;;;15.97;3.70;;;;;;;;;;5071204;28;20236;-45
2024/01/27 00:16:03;;;;;;;15.20;3.50;;;;;;;;;;5071402;28;20430;-44
2024/01/27 00:18:30;;;;;;;17.93;3.53;;;;;;;;;;5071350;28;20208;-45
2024/01/27 00:20:56;;;;;;;12.97;3.53;;;;;;;;;;5071502;28;20684;-45
2024/01/27 00:23:23;;;;;;;16.67;3.43;;;;;;;;;;5071588;28;21090;-45
2024/01/27 00:25:49;;;;;;;14.37;3.50;;;;;;;;;;5071342;28;20452;-45
2024/01/27 00:28:15;;;;;;;15.00;4.33;;;;;;;;;;5071379;28;20509;-45
2024/01/27 00:30:41;;;;;;;15.23;3.90;;;;;;;;;;5071348;28;20283;-45
2024/01/27 00:33:07;;;;;;;14.50;4.70;;;;;;;;;;5071462;28;20258;-44
2024/01/27 00:35:33;;;;;;;19.77;3.80;;;;;;;;;;5071429;28;20677;-44
2024/01/27 00:37:59;;;;;;;17.93;3.67;;;;;;;;;;5073098;28;20206;-44
2024/01/27 00:40:26;;;;;;;11.33;3.63;;;;;;;;;;5074646;28;20199;-45
2024/01/27 00:42:52;;;;;;;16.97;3.70;;;;;;;;;;5074900;28;20294;-45
2024/01/27 00:45:18;;;;;;;17.20;4.17;;;;;;;;;;5074965;28;20521;-45
2024/01/27 00:47:44;;;;;;;12.60;3.20;;;;;;;;;;5074767;28;20241;-44
2024/01/27 00:50:11;;;;;;;13.43;3.97;;;;;;;;;;5074809;28;20442;-44
2024/01/27 00:52:37;;;;;;;10.10;3.93;;;;;;;;;;5074229;28;20755;-45
2024/01/27 00:55:03;;;;;;;12.47;3.07;;;;;;;;;;5074831;28;20438;-45
2024/01/27 00:57:30;;;;;;;18.33;4.70;;;;;;;;;;5074707;28;20958;-45
2024/01/27 00:59:56;;;;;;;12.23;3.57;;;;;;;;;;5074820;28;20437;-45
2024/01/27 01:02:22;;;;;;;15.77;3.83;;;;;;;;;;5074561;28;20525;-44
2024/01/27 01:04:48;;;;;;;15.67;3.90;;;;;;;;;;5074111;28;20879;-45
2024/01/27 01:07:14;;;;;;;15.53;3.97;;;;;;;;;;5074734;28;20196;-45
2024/01/27 01:09:40;;;;;;;20.03;4.40;;;;;;;;;;5074318;28;20203;-45
2024/01/27 01:12:06;;;;;;;14.23;3.67;;;;;;;;;;5074514;28;20258;-44
2024/01/27 01:14:34;;;;;;;20.70;4.33;;;;;;;;;;5034460;28;20493;-45
2024/01/27 01:17:00;;;;;;;15.17;3.87;;;;;;;;;;5034413;28;20468;-45
2024/01/27 01:19:26;;;;;;;12.87;3.30;;;;;;;;;;5034456;28;20447;-45
2024/01/27 01:21:52;;;;;;;10.03;3.80;;;;;;;;;;5034214;28;20737;-44
2024/01/27 01:24:18;;;;;;;10.93;3.00;;;;;;;;;;5034424;28;20439;-45
2024/01/27 01:26:44;;;;;;;18.47;3.70;;;;;;;;;;5034166;28;20201;-45
2024/01/27 01:29:10;;;;;;;13.57;3.90;;;;;;;;;;5034057;28;20203;-45
2024/01/27 01:31:37;;;;;;;14.77;3.00;;;;;;;;;;5033967;28;20703;-44
2024/01/27 01:34:03;;;;;;;15.27;4.57;;;;;;;;;;5034196;28;20563;-44
2024/01/27 01:36:29;;;;;;;13.37;3.90;;;;;;;;;;5034022;28;20431;-45
2024/01/27 01:38:55;;;;;;;17.20;4.27;;;;;;;;;;5031335;28;20274;-44
2024/01/27 01:41:21;;;;;;;24.03;5.13;;;;;;;;;;5034104;28;20284;-44
2024/01/27 01:43:47;;;;;;;11.37;3.53;;;;;;;;;;5034200;28;20212;-44
2024/01/27 01:46:13;;;;;;;17.10;3.80;;;;;;;;;;5034152;28;20751;-44
2024/01/27 01:48:40;;;;;;;12.47;3.37;;;;;;;;;;5033493;28;20200;-44
2024/01/27 01:51:06;;;;;;;16.50;4.03;;;;;;;;;;5034019;28;20209;-44
2024/01/27 01:53:32;;;;;;;17.67;4.50;;;;;;;;;;5033727;28;20485;-44
2024/01/27 01:55:58;;;;;;;14.53;3.13;;;;;;;;;;5033764;28;20604;-44
2024/01/27 01:58:24;;;;;;;17.87;3.63;;;;;;;;;;5033752;28;20436;-44
2024/01/27 02:00:50;;;;;;;19.63;4.97;;;;;;;;;;5033487;28;20467;-45
2024/01/27 02:03:16;;;;;;;18.10;4.83;;;;;;;;;;5033681;28;20197;-44
2024/01/27 02:05:44;;;;;;;18.17;4.43;;;;;;;;;;5033482;28;20283;-44
2024/01/27 02:08:10;;;;;;;18.60;4.77;;;;;;;;;;5033509;28;20698;-45
2024/01/27 02:10:36;;;;;;;17.40;3.60;;;;;;;;;;5033278;28;20436;-45
2024/01/27 02:13:02;;;;;;;12.10;3.90;;;;;;;;;;5048644;28;20485;-45
2024/01/27 02:15:28;;;;;;;13.30;4.00;;;;;;;;;;5073248;28;20429;-44
2024/01/27 02:17:54;;;;;;;13.80;3.83;;;;;;;;;;5073198;28;20476;-45
2024/01/27 02:20:20;;;;;;;12.13;3.77;;;;;;;;;;5073312;28;20324;-45
2024/01/27 02:22:47;;;;;;;13.87;3.90;;;;;;;;;;5073015;28;20554;-45
2024/01/27 02:25:15;;;;;;;12.73;3.57;;;;;;;;;;5073085;28;20549;-45
2024/01/27 02:27:41;;;;;;;16.77;3.97;;;;;;;;;;5072856;28;20434;-45
2024/01/27 02:30:07;;;;;;;10.37;3.37;;;;;;;;;;5072907;28;20442;-44
2024/01/27 02:32:33;;;;;;;13.20;3.30;;;;;;;;;;5072777;28;20231;-45
2024/01/27 02:34:59;;;;;;;16.93;3.87;;;;;;;;;;5072850;28;20433;-45
2024/01/27 02:37:25;;;;;;;17.43;4.33;;;;;;;;;;5072828;28;20195;-45
2024/01/27 02:39:51;;;;;;;19.60;4.67;;;;;;;;;;5072567;28;20434;-45
2024/01/27 02:42:19;;;;;;;12.63;3.40;;;;;;;;;;5070940;28;20554;-45
2024/01/27 02:44:45;;;;;;;14.07;4.07;;;;;;;;;;5070929;28;20274;-45
2024/01/27 02:47:11;;;;;;;15.87;4.10;;;;;;;;;;5070846;28;20557;-45
2024/01/27 02:49:36;;;;;;;12.53;3.60;;;;;;;;;;5069161;28;20196;-45
2024/01/27 02:52:03;;;;;;;18.70;3.57;;;;;;;;;;5067258;28;20223;-45
2024/01/27 02:54:29;;;;;;;13.77;4.03;;;;;;;;;;5067451;28;20199;-45
2024/01/27 02:56:55;;;;;;;10.27;3.00;;;;;;;;;;5067230;28;20434;-45
2024/01/27 02:59:22;;;;;;;14.77;3.90;;;;;;;;;;5065678;28;20191;-45
2024/01/27 03:01:48;;;;;;;19.67;4.00;;;;;;;;;;5068326;28;20196;-44
2024/01/27 03:04:14;;;;;;;11.57;3.07;;;;;;;;;;5068953;28;20929;-45
2024/01/27 03:06:40;;;;;;;12.90;3.53;;;;;;;;;;5068957;28;20441;-44
2024/01/27 03:09:06;;;;;;;14.77;3.47;;;;;;;;;;5068859;28;20294;-45
2024/01/27 03:11:32;;;;;;;13.30;3.57;;;;;;;;;;5072136;28;20936;-45
2024/01/27 03:13:58;;;;;;;14.30;4.23;;;;;;;;;;5063041;28;20234;-46
2024/01/27 03:16:26;;;;;;;16.73;4.67;;;;;;;;;;5065409;28;20199;-45
2024/01/27 03:18:52;;;;;;;12.50;3.93;;;;;;;;;;5060711;28;20822;-45
2024/01/27 03:21:17;;;;;;;15.63;4.13;;;;;;;;;;5065648;28;20426;-45
2024/01/27 03:23:44;;;;;;;14.83;3.87;;;;;;;;;;5065244;28;20418;-45
2024/01/27 03:26:10;;;;;;;15.23;3.73;;;;;;;;;;5066965;28;20268;-45
2024/01/27 03:28:36;;;;;;;14.40;3.57;;;;;;;;;;5061809;28;20845;-45
2024/01/27 03:31:02;;;;;;;14.60;4.40;;;;;;;;;;5060046;28;20959;-45
2024/01/27 03:33:30;;;;;;;15.47;3.97;;;;;;;;;;5066904;28;21113;-45
2024/01/27 03:35:56;;;;;;;10.60;3.20;;;;;;;;;;5061853;28;20548;-45
2024/01/27 03:38:22;;;;;;;14.40;3.97;;;;;;;;;;5063829;28;20468;-45
2024/01/27 03:40:48;;;;;;;13.10;3.63;;;;;;;;;;5065001;28;20437;-45
2024/01/27 03:43:14;;;;;;;9.50;4.33;;;;;;;;;;5066945;28;20800;-45
2024/01/27 03:45:40;;;;;;;14.73;3.60;;;;;;;;;;5063250;28;20199;-45
2024/01/27 03:48:07;;;;;;;15.77;4.17;;;;;;;;;;5061792;28;20215;-45
2024/01/27 03:50:34;;;;;;;17.42;4.95;;;;;;;;;;5062163;28;20811;-45
2024/01/27 03:53:00;;;;;;;12.93;3.73;;;;;;;;;;5059886;28;20334;-45
2024/01/27 03:55:26;;;;;;;13.07;3.43;;;;;;;;;;5061666;28;20528;-45
2024/01/27 03:57:52;;;;;;;12.07;2.97;;;;;;;;;;5061525;28;20667;-45
2024/01/27 04:00:18;;;;;;;17.07;4.13;;;;;;;;;;5059713;28;20253;-45
2024/01/27 04:02:44;;;;;;;20.43;4.13;;;;;;;;;;5058143;28;20196;-45
2024/01/27 04:05:10;;;;;;;16.43;4.80;;;;;;;;;;5061618;28;20434;-45
2024/01/27 04:07:38;;;;;;;18.00;4.00;;;;;;;;;;5061439;28;20520;-45
2024/01/27 04:10:04;;;;;;;16.93;3.87;;;;;;;;;;5059806;28;20446;-45
2024/01/27 04:12:30;;;;;;;14.57;3.87;;;;;;;;;;5061984;28;20535;-45
2024/01/27 04:14:57;;;;;;;14.83;4.63;;;;;;;;;;5066987;28;20461;-45
2024/01/27 04:17:23;;;;;;;16.43;4.13;;;;;;;;;;5065253;28;20458;-45
2024/01/27 04:19:49;;;;;;;13.43;4.30;;;;;;;;;;5066118;28;20491;-45
2024/01/27 04:22:15;;;;;;;13.30;3.47;;;;;;;;;;5063562;28;20838;-45
2024/01/27 04:24:43;;;;;;;10.50;3.33;;;;;;;;;;5065130;28;20203;-45
2024/01/27 04:27:09;;;;;;;12.67;4.17;;;;;;;;;;5063294;28;20678;-45
2024/01/27 04:29:36;;;;;;;12.83;4.60;;;;;;;;;;5063257;28;20536;-45
2024/01/27 04:32:02;;;;;;;9.03;3.40;;;;;;;;;;5061347;28;20215;-45
2024/01/27 04:34:28;;;;;;;12.43;4.27;;;;;;;;;;5063345;28;20487;-45
2024/01/27 04:36:54;;;;;;;13.90;3.90;;;;;;;;;;5061323;28;20658;-45
2024/01/27 04:39:20;;;;;;;8.57;3.70;;;;;;;;;;5063157;28;20199;-45
2024/01/27 04:41:48;;;;;;;16.57;3.83;;;;;;;;;;5064874;28;20235;-45
2024/01/27 04:44:14;;;;;;;12.47;4.27;;;;;;;;;;5064663;28;20205;-45
2024/01/27 04:46:40;;;;;;;12.30;3.70;;;;;;;;;;5063076;28;20458;-45
2024/01/27 04:49:06;;;;;;;14.50;4.30;;;;;;;;;;5062836;28;21105;-44
2024/01/27 04:51:32;;;;;;;15.37;4.10;;;;;;;;;;5062851;28;20203;-45
2024/01/27 04:53:57;;;;;;;15.27;4.40;;;;;;;;;;5062107;28;20199;-45
2024/01/27 04:56:23;;;;;;;16.63;5.20;;;;;;;;;;5061073;28;20253;-44
2024/01/27 04:58:51;;;;;;;12.13;3.37;;;;;;;;;;5062588;28;20679;-45
2024/01/27 05:01:17;;;;;;;14.33;4.77;;;;;;;;;;5062803;28;20203;-45
2024/01/27 05:03:43;;;;;;;12.30;3.70;;;;;;;;;;5062754;28;20429;-45
2024/01/27 05:06:09;;;;;;;15.07;3.40;;;;;;;;;;5062517;28;20604;-45
2024/01/27 05:08:35;;;;;;;15.17;3.73;;;;;;;;;;5059384;28;20195;-45
2024/01/27 05:11:01;;;;;;;11.97;4.33;;;;;;;;;;5064176;28;20444;-45
2024/01/27 05:13:27;;;;;;;13.10;3.77;;;;;;;;;;5062307;28;20511;-45
2024/01/27 05:15:57;;;;;;;12.17;4.47;;;;;;;;;;5060691;28;20731;-45
2024/01/27 05:18:23;;;;;;;10.97;3.63;;;;;;;;;;5062260;28;20739;-45
2024/01/27 05:20:49;;;;;;;10.20;3.83;;;;;;;;;;5060404;28;20438;-45
2024/01/27 05:23:15;;;;;;;12.27;4.47;;;;;;;;;;5063270;28;20260;-45
2024/01/27 05:25:41;;;;;;;12.00;4.03;;;;;;;;;;5060467;28;20446;-45
2024/01/27 05:28:07;;;;;;;14.50;4.20;;;;;;;;;;5060424;28;20249;-45
2024/01/27 05:30:33;;;;;;;14.03;3.93;;;;;;;;;;5062191;28;20435;-45
2024/01/27 05:33:00;;;;;;;15.07;4.33;;;;;;;;;;5061976;28;20816;-45
2024/01/27 05:35:26;;;;;;;18.47;4.43;;;;;;;;;;5062219;28;20205;-45
2024/01/27 05:37:53;;;;;;;12.83;4.03;;;;;;;;;;5061857;28;20525;-45
2024/01/27 05:40:19;;;;;;;12.77;4.17;;;;;;;;;;5060219;28;20199;-45
2024/01/27 05:42:45;;;;;;;19.87;4.57;;;;;;;;;;5060231;28;20982;-45
2024/01/27 05:45:12;;;;;;;11.40;4.27;;;;;;;;;;5060119;28;20230;-45
2024/01/27 05:47:38;;;;;;;18.27;5.77;;;;;;;;;;5063639;28;20434;-45
2024/01/27 05:50:07;;;;;;;13.37;4.10;;;;;;;;;;5061714;28;20452;-45
2024/01/27 05:52:33;;;;;;;9.10;4.47;;;;;;;;;;5061674;28;20565;-45
2024/01/27 05:54:59;;;;;;;14.07;3.67;;;;;;;;;;5061597;28;20461;-45
2024/01/27 05:57:25;;;;;;;10.57;3.90;;;;;;;;;;5061623;28;20504;-45
2024/01/27 05:59:51;;;;;;;11.13;4.40;;;;;;;;;;5061502;28;20195;-45
2024/01/27 06:02:17;;;;;;;17.67;5.07;;;;;;;;;;5059902;28;20204;-45
2024/01/27 06:04:43;;;;;;;14.60;4.40;;;;;;;;;;5059871;28;20207;-45
2024/01/27 06:07:11;;;;;;;15.10;4.03;;;;;;;;;;5061464;28;20437;-45
2024/01/27 06:09:37;;;;;;;13.57;4.27;;;;;;;;;;5061259;28;20441;-45
2024/01/27 06:12:04;;;;;;;18.17;5.00;;;;;;;;;;5059658;28;20513;-45
2024/01/27 06:14:30;;;;;;;12.10;3.80;;;;;;;;;;5059389;28;20830;-45
2024/01/27 06:16:57;;;;;;;13.87;4.30;;;;;;;;;;5061038;28;20464;-45
2024/01/27 06:19:22;;;;;;;13.93;4.17;;;;;;;;;;5059563;28;20278;-45
2024/01/27 06:21:49;;;;;;;14.97;4.77;;;;;;;;;;5059371;28;20525;-45
2024/01/27 06:24:16;;;;;;;19.63;3.97;;;;;;;;;;5060938;28;20661;-45
2024/01/27 06:26:42;;;;;;;11.47;3.63;;;;;;;;;;5059358;28;20472;-45
2024/01/27 06:29:08;;;;;;;14.10;4.60;;;;;;;;;;5060780;28;20450;-45
2024/01/27 06:31:34;;;;;;;12.37;4.77;;;;;;;;;;5059281;28;20196;-45
2024/01/27 06:34:00;;;;;;;14.67;4.37;;;;;;;;;;5060848;28;20228;-45
2024/01/27 06:36:27;;;;;;;15.30;4.43;;;;;;;;;;5060835;28;20437;-44
2024/01/27 06:38:53;;;;;;;14.27;4.90;;;;;;;;;;5058931;28;20568;-45
2024/01/27 06:41:21;;;;;;;10.27;3.77;;;;;;;;;;5061073;28;20521;-45
2024/01/27 06:43:47;;;;;;;13.03;4.40;;;;;;;;;;5060749;28;21023;-45
2024/01/27 06:46:13;;;;;;;10.97;4.80;;;;;;;;;;5059045;28;20514;-45
2024/01/27 06:48:39;;;;;;;11.60;4.13;;;;;;;;;;5060721;28;20199;-45
2024/01/27 06:51:05;;;;;;;16.77;4.23;;;;;;;;;;5058976;28;20425;-45
2024/01/27 06:53:31;;;;;;;11.87;4.33;;;;;;;;;;5060567;28;20473;-45
2024/01/27 06:55:57;;;;;;;15.73;4.73;;;;;;;;;;5060414;28;20523;-45
2024/01/27 06:58:24;;;;;;;13.43;4.60;;;;;;;;;;5060703;28;20222;-45
2024/01/27 07:00:50;;;;;;;11.63;3.90;;;;;;;;;;5060530;28;20434;-45
2024/01/27 07:03:16;;;;;;;11.43;3.87;;;;;;;;;;5062125;28;20437;-45
2024/01/27 07:05:42;;;;;;;14.60;3.70;;;;;;;;;;5060445;28;20676;-45
2024/01/27 07:08:08;;;;;;;10.53;4.00;;;;;;;;;;5070343;28;20206;-45
2024/01/27 07:10:34;;;;;;;18.07;7.23;;;;;;;;;;5071887;28;20199;-45
2024/01/27 07:13:00;;;;;;;17.10;5.47;;;;;;;;;;5071556;28;20481;-45
2024/01/27 07:15:28;;;;;;;15.93;4.70;;;;;;;;;;5072462;28;20468;-45
2024/01/27 07:17:55;;;;;;;15.43;4.20;;;;;;;;;;5072123;28;20227;-45
2024/01/27 07:20:23;;;;;;;14.10;4.60;;;;;;;;;;5072322;28;20473;-45
2024/01/27 07:22:49;;;;;;;14.80;4.57;;;;;;;;;;5071818;28;20723;-46
2024/01/27 07:25:15;;;;;;;11.33;4.33;;;;;;;;;;5072040;28;21045;-45
2024/01/27 07:27:41;;;;;;;14.20;4.70;;;;;;;;;;5072200;28;20199;-45
2024/01/27 07:30:09;;;;;;;14.17;5.23;;;;;;;;;;5071968;28;20534;-45
2024/01/27 07:32:36;;;;;;;20.27;5.10;;;;;;;;;;5071963;28;20839;-45
2024/01/27 07:35:02;;;;;;;14.53;4.80;;;;;;;;;;5071911;28;20429;-45
2024/01/27 07:37:28;;;;;;;16.70;5.63;;;;;;;;;;5072423;28;20457;-45
2024/01/27 07:39:54;;;;;;;16.50;4.93;;;;;;;;;;5071867;28;20944;-45
2024/01/27 07:42:20;;;;;;;11.77;4.47;;;;;;;;;;5071916;28;20195;-45
2024/01/27 07:44:46;;;;;;;13.40;4.33;;;;;;;;;;5071988;28;20184;-45
2024/01/27 07:47:12;;;;;;;10.47;4.30;;;;;;;;;;5073987;28;20686;-45
2024/01/27 07:49:39;;;;;;;10.57;4.77;;;;;;;;;;5076056;28;20429;-45
2024/01/27 07:52:06;;;;;;;9.03;4.57;;;;;;;;;;5075809;28;20207;-45
2024/01/27 07:54:32;;;;;;;14.47;6.03;;;;;;;;;;5076054;28;20528;-45
2024/01/27 07:56:59;;;;;;;12.50;4.67;;;;;;;;;;5076016;28;20434;-45
2024/01/27 07:59:25;;;;;;;12.07;4.07;;;;;;;;;;5076130;28;20441;-44
2024/01/27 08:01:51;;;;;;;11.00;3.80;;;;;;;;;;5076146;28;20430;-45
2024/01/27 08:04:17;;;;;;;11.10;4.47;;;;;;;;;;5075822;28;20456;-45
2024/01/27 08:06:48;;;;;;;12.77;4.10;;;;;;;;;;5075738;28;20199;-44
2024/01/27 08:09:14;;;;;;;11.77;4.73;;;;;;;;;;5075645;28;20737;-45
2024/01/27 08:11:40;;;;;;;13.10;3.97;;;;;;;;;;5075580;28;20449;-45
2024/01/27 08:14:06;;;;;;;17.50;4.43;;;;;;;;;;5075375;28;20481;-45
2024/01/27 08:16:32;;;;;;;10.57;3.37;;;;;;;;;;5075533;28;20286;-46
2024/01/27 08:18:58;;;;;;;10.50;3.70;;;;;;;;;;5075517;28;20195;-45
2024/01/27 08:21:24;;;;;;;14.53;4.27;;;;;;;;;;5075282;28;20684;-45
2024/01/27 08:23:51;;;;;;;11.27;3.70;;;;;;;;;;5075346;28;20274;-45
2024/01/27 08:26:20;;;;;;;10.87;4.03;;;;;;;;;;5075232;28;20203;-45
2024/01/27 08:28:46;;;;;;;9.90;3.70;;;;;;;;;;5075436;28;20191;-45
2024/01/27 08:31:12;;;;;;;12.67;4.10;;;;;;;;;;5075125;28;20629;-45
2024/01/27 08:33:38;;;;;;;11.87;4.43;;;;;;;;;;5075207;28;20232;-44
2024/01/27 08:36:04;;;;;;;10.47;3.63;;;;;;;;;;5075088;28;20274;-44
2024/01/27 08:38:30;;;;;;;10.13;3.80;;;;;;;;;;5075020;28;20196;-45
2024/01/27 08:40:57;;;;;;;8.43;4.73;;;;;;;;;;5075008;28;20196;-44
2024/01/27 08:43:23;;;;;;;10.57;4.27;;;;;;;;;;5074960;28;20203;-45
2024/01/27 08:45:49;;;;;;;12.53;4.03;;;;;;;;;;5074992;28;20191;-45
2024/01/27 08:48:16;;;;;;;11.50;4.53;;;;;;;;;;5074894;28;20238;-44
2024/01/27 08:50:42;;;;;;;11.43;4.83;;;;;;;;;;5074818;28;20673;-45
2024/01/27 08:53:08;;;;;;;10.40;4.53;;;;;;;;;;5074656;28;20233;-44
2024/01/27 08:55:34;;;;;;;12.27;4.63;;;;;;;;;;5074972;28;20216;-44
2024/01/27 08:58:01;;;;;;;10.27;4.07;;;;;;;;;;5073489;28;20227;-44
2024/01/27 09:00:27;;;;;;;10.97;4.30;;;;;;;;;;5074606;28;20658;-45
2024/01/27 09:02:53;;;;;;;10.37;4.30;;;;;;;;;;5074619;28;20214;-45
2024/01/27 09:05:19;;;;;;;11.20;4.20;;;;;;;;;;5074484;28;20200;-46
2024/01/27 09:07:46;;;;;;;11.97;4.33;;;;;;;;;;5074608;28;20215;-47
2024/01/27 09:10:13;;;;;;;13.83;4.50;;;;;;;;;;5074384;28;20689;-45
2024/01/27 09:12:40;;;;;;;12.40;4.77;;;;;;;;;;5074346;28;20238;-47
2024/01/27 09:15:08;;;;;;;11.80;4.50;;;;;;;;;;5074250;28;20223;-46
2024/01/27 09:17:34;;;;;;;11.67;3.70;;;;;;;;;;5074196;28;20224;-46
2024/01/27 09:19:59;;;;;;;11.43;3.60;;;;;;;;;;5074060;28;20191;-46
2024/01/27 09:22:26;;;;;;;13.53;4.40;;;;;;;;;;5062211;28;20257;-46
2024/01/27 09:24:53;;;;;;;7.90;4.03;;;;;;;;;;5060568;28;20207;-46
2024/01/27 09:27:19;;;;;;;11.00;4.00;;;;;;;;;;5062753;28;20203;-46
2024/01/27 09:29:45;;;;;;;9.23;4.23;;;;;;;;;;5062415;28;20200;-46
2024/01/27 09:32:12;;;;;;;11.60;4.73;;;;;;;;;;5065355;28;20273;-46
2024/01/27 09:34:38;;;;;;;7.77;3.93;;;;;;;;;;5063918;28;20231;-46
2024/01/27 09:37:05;;;;;;;10.90;4.60;;;;;;;;;;5063681;28;20199;-46
2024/01/27 09:39:31;;;;;;;10.47;4.27;;;;;;;;;;5064353;28;20597;-46
2024/01/27 09:41:58;;;;;;;9.90;4.73;;;;;;;;;;5067218;28;20692;-46
2024/01/27 09:44:26;;;;;;;10.30;4.30;;;;;;;;;;5066643;28;20203;-46
2024/01/27 09:46:53;;;;;;;10.37;4.67;;;;;;;;;;5066448;28;20204;-46
2024/01/27 09:49:20;;;;;;;9.90;4.53;;;;;;;;;;5066315;28;20570;-46
2024/01/27 09:51:46;;;;;;;12.67;5.03;;;;;;;;;;5067825;28;20203;-46
2024/01/27 09:54:12;;;;;;;11.87;4.57;;;;;;;;;;5062858;28;20277;-46
2024/01/27 09:56:38;;;;;;;11.60;4.27;;;;;;;;;;5064879;28;20199;-46
2024/01/27 09:59:05;;;;;;;9.57;4.13;;;;;;;;;;5064595;28;20657;-46
2024/01/27 10:01:32;;;;;;;7.07;4.00;;;;;;;;;;5061459;28;20211;-46
2024/01/27 10:03:58;;;;;;;6.90;3.90;;;;;;;;;;5061398;28;20195;-46
2024/01/27 10:06:25;;;;;;;9.60;4.23;;;;;;;;;;5061739;28;20207;-46
2024/01/27 10:08:52;;;;;;;11.37;4.60;;;;;;;;;;5064462;28;20291;-46
2024/01/27 10:11:20;;;;;;;10.63;3.60;;;;;;;;;;5064312;28;20200;-46
2024/01/27 10:13:46;;;;;;;10.47;4.73;;;;;;;;;;5062616;28;20278;-46
2024/01/27 10:16:12;;;;;;;9.63;3.80;;;;;;;;;;5066034;28;20252;-46
2024/01/27 10:18:38;;;;;;;9.07;4.20;;;;;;;;;;5064538;28;20490;-46
2024/01/27 10:21:13;;;;;;;11.27;4.37;;;;;;;;;;5064323;28;20614;-46
2024/01/27 10:23:40;;;;;;;9.03;4.30;;;;;;;;;;5060800;28;20854;-46
2024/01/27 10:26:09;;;;;;;9.30;4.20;;;;;;;;;;5064168;28;20201;-46
2024/01/27 10:28:35;;;;;;;9.47;3.97;;;;;;;;;;5064275;28;20616;-46
2024/01/27 10:31:08;;;;;;;14.33;4.30;;;;;;;;;;5065953;28;20295;-46
2024/01/27 10:33:34;;;;;;;11.73;4.27;;;;;;;;;;5064154;28;20236;-47
2024/01/27 10:36:00;;;;;;;10.43;4.20;;;;;;;;;;5065742;28;20608;-46
2024/01/27 10:38:34;;;;;;;11.33;4.77;;;;;;;;;;5060726;28;20659;-46
2024/01/27 10:41:01;;;;;;;11.60;4.93;;;;;;;;;;5071276;28;20197;-47
2024/01/27 10:43:29;;;;;;;8.27;3.80;;;;;;;;;;5064224;28;20555;-46
2024/01/27 10:45:56;;;;;;;10.10;4.53;;;;;;;;;;5062398;28;20691;-46
2024/01/27 10:48:23;;;;;;;12.10;4.87;;;;;;;;;;5062454;28;20204;-46
2024/01/27 10:50:50;;;;;;;11.67;4.27;;;;;;;;;;5060868;28;20203;-46
2024/01/27 10:53:22;;;;;;;13.10;5.37;;;;;;;;;;5065692;28;20219;-46
2024/01/27 10:55:49;;;;;;;10.50;4.63;;;;;;;;;;5058769;28;20622;-46
2024/01/27 10:58:18;;;;;;;10.30;4.23;;;;;;;;;;5065751;28;20290;-46
2024/01/27 11:00:46;;;;;;;9.17;4.93;;;;;;;;;;5062517;28;20226;-46
2024/01/27 11:03:12;;;;;;;8.00;4.23;;;;;;;;;;5062122;28;20286;-46
2024/01/27 11:05:38;;;;;;;9.37;4.47;;;;;;;;;;5062295;28;20235;-46
2024/01/27 11:08:06;;;;;;;10.43;4.37;;;;;;;;;;5060388;28;20207;-46
2024/01/27 11:10:35;;;;;;;10.73;4.40;;;;;;;;;;5061383;28;20195;-46
2024/01/27 11:13:02;;;;;;;11.63;4.93;;;;;;;;;;5065410;28;20239;-46
2024/01/27 11:15:29;;;;;;;10.53;4.53;;;;;;;;;;5067294;28;20207;-46
2024/01/27 11:17:59;;;;;;;9.37;4.20;;;;;;;;;;5060083;28;20227;-46
2024/01/27 11:20:25;;;;;;;9.33;4.17;;;;;;;;;;5063465;28;20203;-46
2024/01/27 11:22:52;;;;;;;8.90;4.23;;;;;;;;;;5057824;28;20611;-53
2024/01/27 11:25:18;;;;;;;8.67;3.87;;;;;;;;;;5068777;28;20201;-46
2024/01/27 11:27:46;;;;;;;11.33;4.27;;;;;;;;;;5059023;28;20567;-46
2024/01/27 11:30:29;;;;;;;12.03;4.30;;;;;;;;;;5061747;28;20733;-46
2024/01/27 11:32:56;;;;;;;8.27;3.97;;;;;;;;;;5063498;28;20225;-46
2024/01/27 11:35:22;;;;;;;10.07;3.83;;;;;;;;;;5061897;28;20282;-46
2024/01/27 11:37:48;;;;;;;11.30;3.93;;;;;;;;;;5059935;28;20669;-46
2024/01/27 11:40:15;;;;;;;6.70;4.07;;;;;;;;;;5063431;28;20199;-46
2024/01/27 11:42:41;;;;;;;8.03;3.80;;;;;;;;;;5063560;28;20205;-46
2024/01/27 11:45:08;;;;;;;13.53;4.27;;;;;;;;;;5063439;28;20200;-46
2024/01/27 11:47:35;;;;;;;13.47;4.60;;;;;;;;;;5061147;28;20200;-47
2024/01/27 11:50:01;;;;;;;12.83;3.97;;;;;;;;;;5061717;28;20567;-46
2024/01/27 11:52:28;;;;;;;9.43;3.90;;;;;;;;;;5063796;28;20422;-46
2024/01/27 11:54:55;;;;;;;12.73;4.53;;;;;;;;;;5057802;28;20889;-46
2024/01/27 11:57:21;;;;;;;11.43;4.90;;;;;;;;;;5066700;28;20249;-46
2024/01/27 11:59:47;;;;;;;9.33;4.30;;;;;;;;;;5061731;28;20203;-46
2024/01/27 12:02:13;;;;;;;9.50;3.97;;;;;;;;;;5061715;28;20286;-46
2024/01/27 12:04:40;;;;;;;7.37;3.60;;;;;;;;;;5063255;28;20203;-47
2024/01/27 12:07:07;;;;;;;9.07;3.80;;;;;;;;;;5064926;28;20208;-46
2024/01/27 12:09:33;;;;;;;10.90;4.07;;;;;;;;;;5063148;28;20541;-46
2024/01/27 12:11:59;;;;;;;8.83;4.00;;;;;;;;;;5065038;28;20727;-46
2024/01/27 12:14:25;;;;;;;9.57;4.13;;;;;;;;;;5059512;28;20324;-46
2024/01/27 12:16:53;;;;;;;18.13;4.33;;;;;;;;;;5059690;28;20219;-46
2024/01/27 12:19:19;;;;;;;7.87;3.43;;;;;;;;;;5061410;28;20186;-46
2024/01/27 12:21:50;;;;;;;7.10;3.50;;;;;;;;;;5065130;28;20199;-46
2024/01/27 12:24:17;;;;;;;12.47;4.10;;;;;;;;;;5059721;28;20206;-46
2024/01/27 12:26:43;;;;;;;12.77;4.33;;;;;;;;;;5061499;28;20251;-46
2024/01/27 12:29:10;;;;;;;13.63;3.90;;;;;;;;;;5059678;28;20197;-46
2024/01/27 12:31:37;;;;;;;10.43;4.13;;;;;;;;;;5062999;28;20201;-46
2024/01/27 12:34:03;;;;;;;8.53;3.67;;;;;;;;;;5064462;28;20586;-46
2024/01/27 12:36:29;;;;;;;8.83;4.17;;;;;;;;;;5064953;28;20204;-46
2024/01/27 12:38:56;;;;;;;9.20;3.83;;;;;;;;;;5066626;28;20195;-46
2024/01/27 12:41:22;;;;;;;9.70;4.00;;;;;;;;;;5063103;28;20211;-46
2024/01/27 12:43:49;;;;;;;13.63;4.87;;;;;;;;;;5063092;28;20192;-46
2024/01/27 12:46:16;;;;;;;12.00;4.03;;;;;;;;;;5064830;28;20196;-46
2024/01/27 12:48:42;;;;;;;9.53;4.13;;;;;;;;;;5066475;28;20210;-46
2024/01/27 12:51:09;;;;;;;8.40;3.93;;;;;;;;;;5064742;28;20235;-46
2024/01/27 12:53:35;;;;;;;11.30;4.47;;;;;;;;;;5064387;28;20230;-46
2024/01/27 12:56:02;;;;;;;8.43;3.90;;;;;;;;;;5063038;28;20196;-47
2024/01/27 12:58:28;;;;;;;11.97;4.60;;;;;;;;;;5062784;28;20214;-47
2024/01/27 13:00:54;;;;;;;11.33;4.40;;;;;;;;;;5066194;28;20654;-48
2024/01/27 13:03:20;;;;;;;9.30;4.33;;;;;;;;;;5064415;28;20211;-47
2024/01/27 13:05:46;;;;;;;10.20;4.40;;;;;;;;;;5066688;28;20228;-48
2024/01/27 13:08:12;;;;;;;9.97;4.43;;;;;;;;;;5067901;28;20203;-47
2024/01/27 13:10:38;;;;;;;11.90;4.27;;;;;;;;;;5062561;28;20540;-47
2024/01/27 13:13:05;;;;;;;10.30;4.30;;;;;;;;;;5062268;28;20611;-47
2024/01/27 13:15:31;;;;;;;12.80;4.50;;;;;;;;;;5064290;28;20274;-47
2024/01/27 13:17:57;;;;;;;12.60;4.47;;;;;;;;;;5064239;28;20251;-47
2024/01/27 13:20:23;;;;;;;11.93;4.50;;;;;;;;;;5064145;28;20200;-47
2024/01/27 13:22:49;;;;;;;11.40;4.73;;;;;;;;;;5062763;28;20192;-47
2024/01/27 13:25:15;;;;;;;14.40;3.80;;;;;;;;;;5065719;28;20201;-47
2024/01/27 13:27:41;;;;;;;12.33;4.13;;;;;;;;;;5074435;28;20196;-47
2024/01/27 13:30:09;;;;;;;10.33;3.47;;;;;;;;;;5074333;28;20199;-47
2024/01/27 13:32:35;;;;;;;11.43;4.13;;;;;;;;;;5074121;28;20219;-47
2024/01/27 13:35:01;;;;;;;10.10;3.90;;;;;;;;;;5074388;28;20245;-48
2024/01/27 13:37:33;;;;;;;8.17;3.50;;;;;;;;;;5074456;28;20281;-48
2024/01/27 13:39:59;;;;;;;8.90;3.33;;;;;;;;;;5074525;28;20280;-48
2024/01/27 13:42:25;;;;;;;9.63;3.70;;;;;;;;;;5074178;28;20282;-48
2024/01/27 13:44:51;;;;;;;8.87;3.63;;;;;;;;;;5073333;28;20719;-46
2024/01/27 13:47:18;;;;;;;14.33;4.00;;;;;;;;;;5074057;28;20203;-46
2024/01/27 13:49:44;;;;;;;8.90;3.67;;;;;;;;;;5073966;28;20688;-47
2024/01/27 13:52:11;;;;;;;9.60;3.50;;;;;;;;;;5073956;28;20630;-47
2024/01/27 13:54:37;;;;;;;7.80;3.57;;;;;;;;;;5073680;28;20234;-46
2024/01/27 13:57:03;;;;;;;9.40;3.37;;;;;;;;;;5073708;28;20662;-47
2024/01/27 13:59:30;;;;;;;8.63;3.67;;;;;;;;;;5073807;28;20199;-48
2024/01/27 14:01:59;;;;;;;9.13;3.60;;;;;;;;;;5073744;28;20291;-46
2024/01/27 14:04:26;;;;;;;9.47;3.40;;;;;;;;;;5073539;28;20192;-46
2024/01/27 14:07:02;;;;;;;7.33;3.33;;;;;;;;;;5073510;28;20210;-47
2024/01/27 14:09:28;;;;;;;12.57;3.60;;;;;;;;;;5073616;28;20203;-47
2024/01/27 14:11:54;;;;;;;11.10;3.33;;;;;;;;;;5073263;28;20711;-46
2024/01/27 14:14:20;;;;;;;11.10;3.47;;;;;;;;;;5073085;28;20748;-47
2024/01/27 14:16:47;;;;;;;9.57;3.63;;;;;;;;;;5073397;28;20195;-47
2024/01/27 14:19:13;;;;;;;10.87;3.67;;;;;;;;;;5073418;28;20213;-47
2024/01/27 14:21:40;;;;;;;9.93;3.80;;;;;;;;;;5073197;28;20204;-47
2024/01/27 14:24:07;;;;;;;10.30;3.60;;;;;;;;;;5073187;28;20195;-47
2024/01/27 14:26:33;;;;;;;10.67;3.20;;;;;;;;;;5073299;28;20249;-47
2024/01/27 14:28:59;;;;;;;8.33;3.57;;;;;;;;;;5073240;28;20196;-47